Airfield :
LOGIN :

Register | Disclaimer

   EN    FR    IT 

 










Legend :    VFR   Marginal VFR   IFR   Intensive IFR   Very Intensive IFR
Visi :
Ceiling :
>= 8 km
>= 3000ft
5 to 8 km
1000 to 3000 ft
1500m to 5 km
500 to 1000 ft
800 to 1500m
200 to 500 ft
< 800m
< 200 ft
Symbols :   Thunderstorms  Fog  Heavy snow  Heavy precipitations  Wind > 20 kt
SIGMETs :     Misc.  Thunderstorms  Icing  Turbulence  Mountain Waves  Volcanic Ashes






- Airport Elevation : 102 ft
- IATA code : CNG


LFBG - Cognac

CURRENT METAR :
  • 020100Z AUTO 08006KT CAVOK 09/05 Q1024

EXPIRED METARs :
  • 020030Z AUTO 08005KT CAVOK 09/05 Q1024
  • 020000Z AUTO 10005KT CAVOK 10/05 Q1024
  • 012330Z AUTO 11004KT CAVOK 10/05 Q1024
  • 012300Z AUTO 12005KT CAVOK 09/05 Q1024
  • 012230Z AUTO 10006KT CAVOK 10/05 Q1024

TAF TAF LFBG
Valid from the 01 at 15:00 until the 02 at 15:00 UTC


011400Z 0115/0215 11010KT CAVOK



MET'MAP, your aeronautical weather chart ! - Copyright ORBIFLY December 2007 - Disclaimer

ORBIFLY MET'MAP TEAM :

Programming & Development : Alexandra Zaïnal
Concept & original design : Baudouin d'Aumeries
Assistance for programming : Marc-Olivier Méhu
Technical & hardware support : Manuel Goepfert

Contact : metmap@orbifly.com




SOURCES & CREDITS :

   NOAA